createdAt,value
2022-08-08T00:00:55.849Z,24.50
2022-08-08T00:02:30.893Z,24.60
2022-08-08T00:05:09.721Z,24.60
2022-08-08T00:08:00.796Z,24.60
2022-08-08T00:10:36.784Z,24.60
2022-08-08T00:14:16.714Z,24.60
2022-08-08T00:16:26.237Z,24.50
2022-08-08T00:19:00.913Z,24.50
2022-08-08T00:21:39.808Z,24.50
2022-08-08T00:24:18.153Z,24.40
2022-08-08T00:26:53.667Z,24.40
2022-08-08T00:29:44.435Z,24.40
2022-08-08T00:32:34.362Z,24.40
2022-08-08T00:35:34.193Z,24.30
2022-08-08T00:38:32.415Z,24.30
2022-08-08T00:42:09.154Z,24.30
2022-08-08T00:45:04.760Z,24.30
2022-08-08T00:48:30.092Z,24.30
2022-08-08T00:51:38.803Z,24.30
2022-08-08T00:54:41.596Z,24.20
2022-08-08T00:57:48.502Z,24.30
2022-08-08T01:00:53.705Z,24.20
2022-08-08T01:04:01.558Z,24.20
2022-08-08T01:07:23.854Z,24.20
2022-08-08T01:10:52.718Z,24.10
2022-08-08T01:14:16.375Z,24.10
2022-08-08T01:17:48.228Z,24.00
2022-08-08T01:20:44.546Z,24.00
2022-08-08T01:24:05.581Z,24.00
2022-08-08T01:27:33.264Z,24.00
2022-08-08T01:31:00.622Z,24.00
2022-08-08T01:34:13.956Z,23.90
2022-08-08T01:37:57.486Z,23.90
2022-08-08T01:40:25.030Z,23.90
2022-08-08T01:43:07.218Z,23.90
2022-08-08T01:45:56.110Z,23.80
2022-08-08T01:48:48.127Z,23.80
2022-08-08T01:52:41.057Z,23.80
2022-08-08T01:55:26.481Z,23.80
2022-08-08T01:58:04.463Z,23.80
2022-08-08T02:00:48.408Z,23.80
2022-08-08T02:03:55.433Z,23.80
2022-08-08T02:06:44.421Z,23.80
2022-08-08T02:10:01.786Z,23.80
2022-08-08T02:12:24.821Z,23.80
2022-08-08T02:15:04.359Z,23.80
2022-08-08T02:17:53.410Z,23.80
2022-08-08T02:21:13.267Z,23.80
2022-08-08T02:23:49.333Z,23.80
2022-08-08T02:26:30.256Z,23.70
2022-08-08T02:29:14.842Z,23.70
2022-08-08T02:32:08.579Z,23.70
2022-08-08T02:35:08.470Z,23.70
2022-08-08T02:38:33.633Z,23.70
2022-08-08T02:42:04.316Z,23.60
2022-08-08T02:45:09.754Z,23.60
2022-08-08T02:48:37.257Z,23.50
2022-08-08T02:51:56.878Z,23.50
2022-08-08T02:54:55.165Z,23.40
2022-08-08T02:58:15.082Z,23.30
2022-08-08T03:01:39.733Z,23.30
2022-08-08T03:05:05.089Z,23.30
2022-08-08T03:08:30.933Z,23.20
2022-08-08T03:12:03.130Z,23.20
2022-08-08T03:15:56.482Z,23.20
2022-08-08T03:18:06.996Z,23.20
2022-08-08T03:20:51.968Z,23.20
2022-08-08T03:23:56.510Z,23.20
2022-08-08T03:26:42.425Z,23.20
2022-08-08T03:29:51.370Z,23.10
2022-08-08T03:32:47.525Z,23.10
2022-08-08T03:35:30.123Z,23.10
2022-08-08T03:38:56.111Z,23.10
2022-08-08T03:40:57.362Z,23.10
2022-08-08T03:43:38.472Z,23.10
2022-08-08T03:46:09.687Z,23.10
2022-08-08T03:49:30.265Z,23.10
2022-08-08T03:51:50.697Z,23.20
2022-08-08T03:54:41.514Z,23.20
2022-08-08T03:58:30.415Z,23.30
2022-08-08T04:00:11.809Z,23.30
2022-08-08T04:02:59.598Z,23.40
2022-08-08T04:05:31.825Z,24.20
2022-08-08T04:08:32.625Z,23.50
2022-08-08T04:11:10.987Z,23.50
2022-08-08T04:14:03.732Z,23.50
2022-08-08T04:16:41.395Z,23.60
2022-08-08T04:19:24.038Z,23.60
2022-08-08T04:22:01.502Z,23.70
2022-08-08T04:24:37.522Z,23.70
2022-08-08T04:27:42.767Z,23.70
2022-08-08T04:30:18.329Z,23.80
2022-08-08T04:32:52.137Z,23.80
2022-08-08T04:35:32.333Z,23.90
2022-08-08T04:38:10.069Z,24.00
2022-08-08T04:40:58.092Z,24.00
2022-08-08T04:43:32.289Z,24.10
2022-08-08T04:46:19.598Z,24.20
2022-08-08T04:48:50.864Z,24.20
2022-08-08T04:51:27.918Z,24.30
2022-08-08T04:54:38.953Z,24.40
2022-08-08T04:56:47.037Z,24.50
2022-08-08T04:59:16.935Z,24.60
2022-08-08T05:01:48.091Z,24.70
2022-08-08T05:04:19.489Z,24.70
2022-08-08T05:06:50.610Z,24.70
2022-08-08T05:09:22.718Z,24.80
2022-08-08T05:11:56.810Z,24.90
2022-08-08T05:14:29.508Z,24.90
2022-08-08T05:17:08.852Z,25.00
2022-08-08T05:20:09.391Z,25.10
2022-08-08T05:22:38.070Z,25.10
2022-08-08T05:25:08.816Z,25.20
2022-08-08T05:27:41.529Z,25.30
2022-08-08T05:30:15.551Z,25.40
2022-08-08T05:32:49.290Z,25.50
2022-08-08T05:35:24.299Z,25.50
2022-08-08T05:38:01.467Z,25.60
2022-08-08T05:40:51.381Z,25.70
2022-08-08T05:44:02.810Z,25.70
2022-08-08T05:46:17.973Z,25.80
2022-08-08T05:48:52.704Z,25.90
2022-08-08T05:51:28.214Z,26.00
2022-08-08T05:54:27.712Z,26.00
2022-08-08T05:58:05.387Z,26.10
2022-08-08T06:00:22.823Z,26.20
2022-08-08T06:03:17.182Z,26.30
2022-08-08T06:06:01.306Z,26.40
2022-08-08T06:08:38.314Z,26.50
2022-08-08T06:11:13.240Z,26.50
2022-08-08T06:13:49.428Z,26.60
2022-08-08T06:16:27.557Z,26.70
2022-08-08T06:19:16.317Z,26.80
2022-08-08T06:21:56.993Z,26.90
2022-08-08T06:24:47.391Z,27.00
2022-08-08T06:27:25.209Z,27.10
2022-08-08T06:30:02.859Z,27.20
2022-08-08T06:32:47.528Z,27.20
2022-08-08T06:36:08.855Z,27.30
2022-08-08T06:38:14.636Z,27.40
2022-08-08T06:40:54.224Z,27.50
2022-08-08T06:43:34.059Z,27.50
2022-08-08T06:46:19.025Z,27.70
2022-08-08T06:48:54.304Z,27.80
2022-08-08T06:51:25.214Z,27.90
2022-08-08T06:54:03.320Z,27.90
2022-08-08T06:56:57.364Z,28.00
2022-08-08T06:59:30.531Z,28.00
2022-08-08T07:02:29.197Z,28.10
2022-08-08T07:05:05.934Z,28.20
2022-08-08T07:08:05.904Z,28.20
2022-08-08T07:10:48.010Z,28.30
2022-08-08T07:13:25.160Z,28.40
2022-08-08T07:16:10.647Z,28.50
2022-08-08T07:18:57.711Z,28.60
2022-08-08T07:21:34.893Z,28.70
2022-08-08T07:24:29.429Z,28.70
2022-08-08T07:27:09.290Z,28.80
2022-08-08T07:30:00.411Z,28.80
2022-08-08T07:32:33.837Z,28.90
2022-08-08T07:35:06.459Z,29.00
2022-08-08T07:37:49.695Z,29.10
2022-08-08T07:40:40.394Z,29.10
2022-08-08T07:43:16.993Z,29.30
2022-08-08T07:46:23.215Z,29.30
2022-08-08T07:48:56.349Z,29.40
2022-08-08T07:51:44.796Z,29.50
2022-08-08T07:54:27.537Z,29.50
2022-08-08T07:57:12.739Z,29.60
2022-08-08T07:59:58.648Z,29.70
2022-08-08T08:02:54.385Z,29.80
2022-08-08T08:05:32.991Z,29.90
2022-08-08T08:08:08.284Z,29.90
2022-08-08T08:10:39.539Z,30.00
2022-08-08T08:13:25.189Z,30.10
2022-08-08T08:16:03.685Z,30.10
2022-08-08T08:18:51.854Z,30.20
2022-08-08T08:21:35.414Z,30.20
2022-08-08T08:24:31.982Z,30.30
2022-08-08T08:27:03.861Z,30.40
2022-08-08T08:29:52.052Z,30.40
2022-08-08T08:32:35.605Z,30.50
2022-08-08T08:35:10.199Z,30.60
2022-08-08T08:38:12.869Z,30.60
2022-08-08T08:40:34.819Z,30.70
2022-08-08T08:43:07.893Z,30.80
2022-08-08T08:46:05.647Z,30.90
2022-08-08T08:48:38.029Z,31.00
2022-08-08T08:51:19.399Z,31.00
2022-08-08T08:53:56.657Z,31.20
2022-08-08T08:56:34.813Z,31.30
2022-08-08T08:59:15.065Z,31.30
2022-08-08T09:01:56.905Z,31.40
2022-08-08T09:04:37.998Z,31.50
2022-08-08T09:07:39.110Z,31.60
2022-08-08T09:10:19.406Z,31.70
2022-08-08T09:12:52.313Z,31.80
2022-08-08T09:15:37.073Z,31.80
2022-08-08T09:18:10.168Z,31.90
2022-08-08T09:21:56.515Z,32.00
2022-08-08T09:23:38.186Z,32.10
2022-08-08T09:26:21.464Z,32.20
2022-08-08T09:28:53.841Z,32.30
2022-08-08T09:31:42.775Z,32.30
2022-08-08T09:34:50.592Z,32.40
2022-08-08T09:37:58.549Z,32.50
2022-08-08T09:40:40.700Z,32.50
2022-08-08T09:43:24.035Z,32.60
2022-08-08T09:46:16.717Z,32.70
2022-08-08T09:48:56.430Z,32.70
2022-08-08T09:51:41.472Z,32.80
2022-08-08T09:54:37.201Z,32.90
2022-08-08T09:57:12.649Z,32.90
2022-08-08T10:00:01.155Z,33.00
2022-08-08T10:02:44.942Z,33.10
2022-08-08T10:05:25.215Z,33.20
2022-08-08T10:08:00.789Z,33.20
2022-08-08T10:10:33.179Z,33.30
2022-08-08T10:13:13.817Z,33.30
2022-08-08T10:16:00.299Z,33.40
2022-08-08T10:18:31.916Z,33.40
2022-08-08T10:21:22.585Z,33.40
2022-08-08T10:23:57.764Z,33.50
2022-08-08T10:26:52.239Z,33.50
2022-08-08T10:29:43.834Z,33.70
2022-08-08T10:32:36.161Z,33.80
2022-08-08T10:35:11.519Z,33.90
2022-08-08T10:37:52.264Z,34.00
2022-08-08T10:40:25.119Z,34.10
2022-08-08T10:43:02.971Z,34.20
2022-08-08T10:45:43.019Z,34.20
2022-08-08T10:48:37.155Z,34.20
2022-08-08T10:51:14.123Z,34.30
2022-08-08T10:53:58.300Z,34.40
2022-08-08T10:56:34.585Z,34.40
2022-08-08T10:59:09.547Z,34.50
2022-08-08T11:01:40.414Z,34.50
2022-08-08T11:04:11.989Z,34.70
2022-08-08T11:06:47.395Z,34.80
2022-08-08T11:09:21.249Z,34.90
2022-08-08T11:12:05.798Z,35.10
2022-08-08T11:14:57.239Z,35.20
2022-08-08T11:18:00.586Z,35.50
2022-08-08T11:20:23.707Z,35.90
2022-08-08T11:23:15.971Z,36.20
2022-08-08T11:25:56.914Z,36.50
2022-08-08T11:28:30.504Z,36.70
2022-08-08T11:31:04.133Z,36.80
2022-08-08T11:33:52.703Z,36.80
2022-08-08T11:36:27.876Z,36.90
2022-08-08T11:38:59.366Z,37.00
2022-08-08T11:41:32.472Z,37.10
2022-08-08T11:44:29.024Z,37.10
2022-08-08T11:47:00.381Z,37.10
2022-08-08T11:49:30.356Z,37.00
2022-08-08T11:51:59.836Z,37.00
2022-08-08T11:54:34.316Z,37.10
2022-08-08T11:57:16.976Z,37.10
2022-08-08T12:00:09.794Z,37.20
2022-08-08T12:02:54.842Z,37.20
2022-08-08T12:05:34.076Z,37.50
2022-08-08T12:08:04.379Z,37.40
2022-08-08T12:10:54.022Z,37.40
2022-08-08T12:13:37.954Z,37.40
2022-08-08T12:16:16.502Z,37.50
2022-08-08T12:18:48.850Z,37.60
2022-08-08T12:22:00.471Z,37.70
2022-08-08T12:24:17.317Z,37.60
2022-08-08T12:26:50.036Z,37.50
2022-08-08T12:29:40.864Z,37.50
2022-08-08T12:32:20.269Z,37.50
2022-08-08T12:35:04.937Z,37.40
2022-08-08T12:37:48.126Z,37.40
2022-08-08T12:40:44.517Z,37.50
2022-08-08T12:43:32.955Z,37.80
2022-08-08T12:46:19.190Z,38.00
2022-08-08T12:49:22.119Z,37.90
2022-08-08T12:51:59.177Z,37.70
2022-08-08T12:54:48.675Z,37.70
2022-08-08T12:57:27.154Z,37.70
2022-08-08T13:00:05.776Z,37.40
2022-08-08T13:02:51.649Z,37.30
2022-08-08T13:05:26.868Z,37.40
2022-08-08T13:08:19.087Z,37.80
2022-08-08T13:10:57.008Z,38.20
2022-08-08T13:13:35.221Z,38.30
2022-08-08T13:16:20.508Z,38.50
2022-08-08T13:18:57.580Z,38.60
2022-08-08T13:21:49.112Z,38.70
2022-08-08T13:24:38.535Z,38.70
2022-08-08T13:27:12.308Z,38.60
2022-08-08T13:29:52.844Z,38.30
2022-08-08T13:32:23.570Z,38.10
2022-08-08T13:34:55.504Z,37.80
2022-08-08T13:37:51.782Z,37.60
2022-08-08T13:40:27.518Z,37.40
2022-08-08T13:42:57.891Z,37.00
2022-08-08T13:45:27.569Z,36.60
2022-08-08T13:48:25.299Z,36.30
2022-08-08T13:51:24.580Z,36.10
2022-08-08T13:54:00.359Z,35.80
2022-08-08T13:56:41.579Z,35.60
2022-08-08T13:59:32.931Z,35.40
2022-08-08T14:02:07.830Z,35.20
2022-08-08T14:04:52.935Z,35.00
2022-08-08T14:07:24.029Z,34.90
2022-08-08T14:10:05.346Z,34.80
2022-08-08T14:12:43.793Z,34.70
2022-08-08T14:15:39.774Z,34.50
2022-08-08T14:18:35.018Z,34.40
2022-08-08T14:21:12.808Z,34.30
2022-08-08T14:24:04.199Z,34.30
2022-08-08T14:26:45.898Z,34.10
2022-08-08T14:29:28.946Z,34.10
2022-08-08T14:32:12.581Z,34.00
2022-08-08T14:34:45.338Z,34.00
2022-08-08T14:37:18.904Z,34.00
2022-08-08T14:40:07.279Z,34.00
2022-08-08T14:42:55.007Z,34.00
2022-08-08T14:46:01.375Z,34.00
2022-08-08T14:48:34.421Z,33.90
2022-08-08T14:51:08.434Z,33.90
2022-08-08T14:53:55.902Z,33.80
2022-08-08T14:56:26.146Z,33.80
2022-08-08T14:58:56.254Z,33.80
2022-08-08T15:01:37.331Z,33.70
2022-08-08T15:04:13.170Z,33.70
2022-08-08T15:06:44.351Z,33.50
2022-08-08T15:09:14.381Z,33.50
2022-08-08T15:11:46.355Z,33.40
2022-08-08T15:14:25.063Z,33.30
2022-08-08T15:16:57.343Z,33.30
2022-08-08T15:19:45.003Z,33.20
2022-08-08T15:22:17.985Z,33.10
2022-08-08T15:24:52.894Z,33.00
2022-08-08T15:28:04.844Z,32.90
2022-08-08T15:30:12.562Z,32.80
2022-08-08T15:32:45.247Z,32.80
2022-08-08T15:35:37.529Z,32.70
2022-08-08T15:38:12.856Z,32.70
2022-08-08T15:40:45.335Z,32.60
2022-08-08T15:43:34.864Z,32.50
2022-08-08T15:46:05.150Z,32.50
2022-08-08T15:48:36.412Z,32.40
2022-08-08T15:51:07.268Z,32.30
2022-08-08T15:53:49.014Z,32.30
2022-08-08T15:56:20.024Z,32.20
2022-08-08T15:58:50.387Z,32.20
2022-08-08T16:01:20.931Z,32.20
2022-08-08T16:03:53.028Z,32.10
2022-08-08T16:06:27.768Z,32.10
2022-08-08T16:09:02.386Z,32.00
2022-08-08T16:13:14.107Z,32.00
2022-08-08T16:14:56.122Z,31.90
2022-08-08T16:17:58.198Z,31.90
2022-08-08T16:20:17.757Z,31.80
2022-08-08T16:22:50.128Z,31.80
2022-08-08T16:25:21.969Z,31.70
2022-08-08T16:27:58.249Z,31.60
2022-08-08T16:30:36.527Z,31.60
2022-08-08T16:33:06.076Z,31.50
2022-08-08T16:35:58.344Z,31.50
2022-08-08T16:38:31.721Z,31.40
2022-08-08T16:41:01.929Z,31.30
2022-08-08T16:43:30.999Z,31.30
2022-08-08T16:46:43.197Z,31.30
2022-08-08T16:49:07.796Z,31.20
2022-08-08T16:55:07.677Z,31.10
2022-08-08T16:55:19.493Z,31.10
2022-08-08T16:57:27.849Z,31.00
2022-08-08T17:00:10.162Z,31.00
2022-08-08T17:02:40.143Z,30.90
2022-08-08T17:05:13.968Z,30.90
2022-08-08T17:07:51.080Z,30.80
2022-08-08T17:10:20.657Z,30.80
2022-08-08T17:12:53.005Z,30.70
2022-08-08T17:15:23.144Z,30.60
2022-08-08T17:18:02.970Z,30.50
2022-08-08T17:20:39.792Z,30.50
2022-08-08T17:23:17.959Z,30.40
2022-08-08T17:26:05.153Z,30.30
2022-08-08T17:28:35.683Z,30.20
2022-08-08T17:31:43.641Z,30.20
2022-08-08T17:34:49.204Z,30.10
2022-08-08T17:36:55.185Z,30.00
2022-08-08T17:40:04.335Z,30.00
2022-08-08T17:42:23.033Z,29.90
2022-08-08T17:44:52.841Z,29.90
2022-08-08T17:47:23.736Z,29.80
2022-08-08T17:50:08.407Z,29.80
2022-08-08T17:52:43.156Z,29.70
2022-08-08T17:56:03.891Z,29.70
2022-08-08T17:58:02.938Z,29.60
2022-08-08T18:00:32.173Z,29.60
2022-08-08T18:03:08.478Z,29.60
2022-08-08T18:05:49.516Z,29.50
2022-08-08T18:08:38.373Z,29.50
2022-08-08T18:11:16.345Z,29.40
2022-08-08T18:14:04.436Z,29.40
2022-08-08T18:16:52.823Z,29.30
2022-08-08T18:19:24.175Z,29.30
2022-08-08T18:22:01.870Z,29.20
2022-08-08T18:24:32.164Z,29.20
2022-08-08T18:27:06.009Z,29.20
2022-08-08T18:30:02.520Z,29.20
2022-08-08T18:32:31.496Z,29.10
2022-08-08T18:35:00.354Z,29.10
2022-08-08T18:37:34.164Z,29.10
2022-08-08T18:40:03.927Z,29.00
2022-08-08T18:42:36.468Z,29.00
2022-08-08T18:45:09.227Z,28.90
2022-08-08T18:47:57.379Z,28.90
2022-08-08T18:50:26.949Z,28.80
2022-08-08T18:52:55.905Z,28.80
2022-08-08T18:55:28.002Z,28.70
2022-08-08T18:57:58.590Z,28.70
2022-08-08T19:00:28.329Z,28.70
2022-08-08T19:03:04.154Z,28.60
2022-08-08T19:05:38.542Z,28.60
2022-08-08T19:08:24.510Z,28.60
2022-08-08T19:10:58.364Z,28.60
2022-08-08T19:13:53.529Z,28.60
2022-08-08T19:16:19.938Z,28.50
2022-08-08T19:19:00.265Z,28.50
2022-08-08T19:21:33.328Z,28.50
2022-08-08T19:24:05.573Z,28.40
2022-08-08T19:26:37.383Z,28.40
2022-08-08T19:29:08.739Z,28.40
2022-08-08T19:31:37.771Z,28.40
2022-08-08T19:34:36.274Z,28.40
2022-08-08T19:36:59.211Z,28.30
2022-08-08T19:39:34.945Z,28.30
2022-08-08T19:42:06.819Z,28.30
2022-08-08T19:44:45.951Z,28.20
2022-08-08T19:47:24.720Z,28.20
2022-08-08T19:50:03.171Z,28.20
2022-08-08T19:52:37.077Z,28.20
2022-08-08T19:55:11.256Z,28.10
2022-08-08T19:57:59.052Z,28.10
2022-08-08T20:00:32.846Z,28.10
2022-08-08T20:03:02.128Z,28.00
2022-08-08T20:06:14.596Z,28.00
2022-08-08T20:08:33.504Z,28.00
2022-08-08T20:11:03.328Z,28.00
2022-08-08T20:14:32.312Z,27.90
2022-08-08T20:16:29.579Z,27.90
2022-08-08T20:18:58.775Z,27.90
2022-08-08T20:21:32.028Z,27.80
2022-08-08T20:24:07.954Z,27.80
2022-08-08T20:26:38.409Z,27.70
2022-08-08T20:29:11.307Z,27.70
2022-08-08T20:32:07.307Z,27.70
2022-08-08T20:34:32.053Z,27.70
2022-08-08T20:37:03.299Z,27.60
2022-08-08T20:39:51.785Z,27.60
2022-08-08T20:42:28.531Z,27.60
2022-08-08T20:44:59.849Z,27.50
2022-08-08T20:47:36.421Z,27.50
2022-08-08T20:50:26.514Z,27.50
2022-08-08T20:52:58.082Z,27.40
2022-08-08T20:55:27.111Z,27.40
2022-08-08T20:57:58.090Z,27.40
2022-08-08T21:00:27.415Z,27.40
2022-08-08T21:02:57.871Z,27.40
2022-08-08T21:05:31.925Z,27.40
2022-08-08T21:08:37.113Z,27.40
2022-08-08T21:11:08.710Z,27.40
2022-08-08T21:13:39.957Z,27.40
2022-08-08T21:16:18.056Z,27.40
2022-08-08T21:18:57.730Z,27.40
2022-08-08T21:21:39.895Z,27.40
2022-08-08T21:24:22.259Z,27.30
2022-08-08T21:26:58.066Z,27.30
2022-08-08T21:30:05.547Z,27.30
2022-08-08T21:32:25.102Z,27.30
2022-08-08T21:34:56.542Z,27.30
2022-08-08T21:37:54.416Z,27.30
2022-08-08T21:40:31.241Z,27.30
2022-08-08T21:43:00.998Z,27.30
2022-08-08T21:48:01.435Z,27.20
2022-08-08T21:48:30.415Z,27.20
2022-08-08T21:51:13.282Z,27.10
2022-08-08T21:54:32.113Z,27.10
2022-08-08T21:56:42.004Z,27.00
2022-08-08T21:59:12.952Z,27.00
2022-08-08T22:01:44.826Z,26.90
2022-08-08T22:04:21.685Z,26.90
2022-08-08T22:06:51.982Z,26.90
2022-08-08T22:09:26.791Z,26.90
2022-08-08T22:12:09.744Z,26.90
2022-08-08T22:14:44.279Z,26.90
2022-08-08T22:17:17.060Z,26.90
2022-08-08T22:20:13.160Z,26.90
2022-08-08T22:22:55.636Z,26.90
2022-08-08T22:25:26.038Z,26.90
2022-08-08T22:28:02.744Z,26.80
2022-08-08T22:30:33.881Z,26.80
2022-08-08T22:33:02.894Z,26.80
2022-08-08T22:36:05.198Z,26.80
2022-08-08T22:38:28.815Z,26.70
2022-08-08T22:40:58.328Z,26.60
2022-08-08T22:43:29.440Z,26.60
2022-08-08T22:46:01.276Z,26.50
2022-08-08T22:48:30.441Z,26.50
2022-08-08T22:50:59.382Z,26.40
2022-08-08T22:54:30.755Z,26.40
2022-08-08T22:56:28.235Z,26.30
2022-08-08T22:58:58.151Z,26.30
2022-08-08T23:02:02.196Z,26.20
2022-08-08T23:04:16.381Z,26.20
2022-08-08T23:07:02.671Z,26.20
2022-08-08T23:09:39.489Z,26.30
2022-08-08T23:12:39.492Z,26.30
2022-08-08T23:15:10.731Z,26.30
2022-08-08T23:17:59.581Z,26.30
2022-08-08T23:20:28.653Z,26.30
2022-08-08T23:22:57.738Z,26.30
2022-08-08T23:25:28.065Z,26.30
2022-08-08T23:27:56.986Z,26.30
2022-08-08T23:30:47.625Z,26.30
2022-08-08T23:33:20.954Z,26.20
2022-08-08T23:36:09.077Z,26.20
2022-08-08T23:38:44.161Z,26.20
2022-08-08T23:41:23.018Z,26.20
2022-08-08T23:43:56.379Z,26.10
2022-08-08T23:49:00.412Z,26.10
2022-08-08T23:49:18.946Z,26.10
2022-08-08T23:52:04.726Z,26.00
2022-08-08T23:54:41.630Z,26.00
2022-08-08T23:57:53.141Z,25.90
